Time;durP1;ratioP1;P1;durP2;ratioP2;P2;SDS_P1;SDS_P2;PMS_P1;PMS_P2;Temp;Humidity;BMP_temperature;BMP_pressure;BME280_temperature;BME280_humidity;BME280_pressure;Samples;Min_cycle;Max_cycle;Signal;HPM_P1;HPM_P2
2023/01/02 00:01:02;;;;;;;0.17;0.00;;;16.80;55.00;;;;;;5020361;28;82623;-72
2023/01/02 00:03:28;;;;;;;0.77;0.00;;;16.80;54.20;;;;;;5014785;28;84056;-72
2023/01/02 00:05:54;;;;;;;0.20;0.00;;;16.80;54.30;;;;;;5020762;28;82172;-72
2023/01/02 00:08:20;;;;;;;1.67;0.00;;;16.80;53.80;;;;;;5023401;28;82210;-73
2023/01/02 00:10:45;;;;;;;0.10;0.00;;;16.80;54.00;;;;;;5012759;28;82481;-72
2023/01/02 00:13:11;;;;;;;0.40;0.00;;;16.80;54.00;;;;;;5023450;28;81820;-72
2023/01/02 00:15:37;;;;;;;0.35;0.10;;;16.80;54.00;;;;;;5027994;28;82832;-72
2023/01/02 00:18:02;;;;;;;0.10;0.00;;;16.80;54.10;;;;;;5018500;28;82346;-72
2023/01/02 00:20:28;;;;;;;0.50;0.00;;;16.80;53.20;;;;;;5016873;28;84829;-72
2023/01/02 00:22:54;;;;;;;0.10;0.00;;;16.80;53.50;;;;;;5020704;27;84109;-72
2023/01/02 00:25:19;;;;;;;0.17;0.00;;;16.90;53.40;;;;;;5028374;28;82268;-72
2023/01/02 00:27:45;;;;;;;1.33;0.10;;;16.90;53.80;;;;;;5037113;28;82495;-72
2023/01/02 00:30:11;;;;;;;0.10;0.00;;;16.90;53.50;;;;;;5025509;28;83957;-71
2023/01/02 00:32:37;;;;;;;0.57;0.00;;;16.90;53.50;;;;;;5015401;28;82526;-71
2023/01/02 00:35:02;;;;;;;0.20;0.03;;;16.90;52.70;;;;;;5026220;28;82003;-72
2023/01/02 00:37:28;;;;;;;0.52;0.00;;;17.00;52.90;;;;;;5016686;28;81642;-72
2023/01/02 00:39:54;;;;;;;0.10;0.00;;;16.90;52.90;;;;;;5040436;28;82589;-72
2023/01/02 00:42:19;;;;;;;0.00;0.00;;;16.80;52.30;;;;;;5017275;28;83485;-72
2023/01/02 00:44:45;;;;;;;0.13;0.00;;;16.90;53.20;;;;;;5017500;28;83274;-72
2023/01/02 00:47:10;;;;;;;1.80;0.00;;;16.80;52.60;;;;;;5024994;28;82085;-72
2023/01/02 00:49:36;;;;;;;3.85;0.00;;;16.80;53.50;;;;;;5022204;28;83393;-72
2023/01/02 00:52:02;;;;;;;0.10;0.00;;;16.90;52.90;;;;;;5013489;28;82903;-72
2023/01/02 00:54:27;;;;;;;0.93;0.10;;;16.80;53.30;;;;;;5020482;27;83807;-72
2023/01/02 00:56:53;;;;;;;0.45;0.00;;;16.90;53.00;;;;;;5021421;28;82266;-72
2023/01/02 00:59:19;;;;;;;3.00;0.15;;;16.90;53.50;;;;;;5028445;27;83131;-72
2023/01/02 01:01:44;;;;;;;0.10;0.00;;;16.90;53.40;;;;;;5036622;28;82319;-72
2023/01/02 01:04:10;;;;;;;0.20;0.00;;;16.80;51.80;;;;;;5017167;28;82212;-72
2023/01/02 01:06:36;;;;;;;0.10;0.00;;;17.00;53.40;;;;;;5015799;28;82344;-72
2023/01/02 01:09:01;;;;;;;0.10;0.00;;;16.90;52.40;;;;;;5014205;28;83031;-72
2023/01/02 01:11:27;;;;;;;1.85;0.00;;;16.90;52.90;;;;;;5025583;28;83902;-72
2023/01/02 01:13:53;;;;;;;0.10;0.03;;;16.80;52.70;;;;;;5027428;28;84298;-72
2023/01/02 01:16:19;;;;;;;0.10;0.00;;;16.80;53.00;;;;;;5028365;28;82299;-72
2023/01/02 01:18:45;;;;;;;1.25;0.00;;;16.80;52.60;;;;;;5032207;28;83185;-72
2023/01/02 01:21:14;;;;;;;0.10;0.00;;;16.90;53.00;;;;;;5021223;28;82628;-72
2023/01/02 01:23:39;;;;;;;0.38;0.15;;;16.80;52.30;;;;;;5016379;28;82114;-72
2023/01/02 01:26:07;;;;;;;0.10;0.00;;;16.80;52.40;;;;;;5018357;28;81819;-72
2023/01/02 01:28:33;;;;;;;0.25;0.00;;;16.80;52.80;;;;;;5018550;28;84042;-72
2023/01/02 01:31:17;;;;;;;0.10;0.00;;;16.70;52.80;;;;;;5030425;28;83341;-72
2023/01/02 01:33:44;;;;;;;0.35;0.00;;;16.80;54.00;;;;;;5031029;28;83123;-72
2023/01/02 01:36:11;;;;;;;0.10;0.00;;;16.80;53.50;;;;;;5020574;27;82267;-72
2023/01/02 01:38:37;;;;;;;0.10;0.00;;;16.80;52.00;;;;;;5030439;28;84041;-71
2023/01/02 01:41:05;;;;;;;0.10;0.00;;;16.80;52.70;;;;;;5014206;28;82765;-72
2023/01/02 01:43:38;;;;;;;0.32;0.00;;;16.80;53.50;;;;;;5016405;28;82446;-72
2023/01/02 01:46:25;;;;;;;5.53;1.98;;;16.80;52.80;;;;;;5018680;28;82093;-72
2023/01/02 01:49:05;;;;;;;5.95;2.25;;;16.20;59.80;;;;;;5018173;28;83477;-71
2023/01/02 01:51:37;;;;;;;5.97;2.90;;;15.10;64.10;;;;;;5020466;28;83101;-71
2023/01/02 01:54:09;;;;;;;5.75;2.50;;;14.10;69.20;;;;;;5027616;28;82652;-71
2023/01/02 01:56:40;;;;;;;6.88;2.72;;;13.40;71.60;;;;;;5014020;28;82048;-71
2023/01/02 01:59:09;;;;;;;7.68;2.65;;;12.90;75.30;;;;;;5026151;28;83090;-71
2023/01/02 02:01:34;;;;;;;6.32;3.10;;;12.50;77.20;;;;;;5011958;28;83157;-71
2023/01/02 02:04:00;;;;;;;7.50;3.08;;;12.00;77.30;;;;;;5021915;28;82902;-71
2023/01/02 02:06:27;;;;;;;7.88;3.13;;;11.80;78.90;;;;;;5019118;28;82024;-71
2023/01/02 02:09:05;;;;;;;10.88;3.60;;;11.50;80.20;;;;;;5026780;28;82454;-71
2023/01/02 02:11:31;;;;;;;11.50;3.40;;;11.20;81.00;;;;;;5014058;28;83045;-71
2023/01/02 02:13:58;;;;;;;8.93;3.83;;;11.10;81.60;;;;;;5012283;28;82195;-72
2023/01/02 02:16:27;;;;;;;7.32;3.15;;;10.90;82.70;;;;;;5013928;28;81559;-72
2023/01/02 02:19:04;;;;;;;8.27;3.72;;;10.80;83.10;;;;;;5013935;28;84536;-72
2023/01/02 02:21:49;;;;;;;8.32;4.03;;;10.60;83.90;;;;;;5023531;28;82313;-73
2023/01/02 02:24:36;;;;;;;9.95;4.07;;;10.60;83.80;;;;;;5012771;28;84786;-72
2023/01/02 02:27:23;;;;;;;6.95;3.30;;;10.50;85.10;;;;;;5010669;28;82047;-72
2023/01/02 02:30:07;;;;;;;7.95;3.67;;;10.40;85.40;;;;;;5020646;27;82502;-72
2023/01/02 02:32:54;;;;;;;9.18;4.03;;;10.40;85.30;;;;;;5012374;28;82858;-72
2023/01/02 02:35:38;;;;;;;9.02;3.53;;;10.30;85.40;;;;;;5014115;28;82064;-71
2023/01/02 02:38:13;;;;;;;9.68;4.20;;;10.30;86.00;;;;;;5023314;28;82010;-71
2023/01/02 02:40:57;;;;;;;9.05;4.03;;;10.20;85.90;;;;;;5015376;28;83158;-70
2023/01/02 02:43:57;;;;;;;9.30;3.53;;;10.20;86.30;;;;;;5019825;28;82289;-72
2023/01/02 02:46:55;;;;;;;10.80;4.30;;;10.00;87.30;;;;;;5020227;28;82146;-72
2023/01/02 02:49:53;;;;;;;9.32;3.63;;;9.90;87.80;;;;;;5017995;28;83341;-72
2023/01/02 02:52:45;;;;;;;9.32;3.53;;;9.70;88.50;;;;;;5022578;28;82899;-72
2023/01/02 02:55:10;;;;;;;9.23;3.80;;;9.60;88.90;;;;;;5028560;28;83813;-70
2023/01/02 02:57:38;;;;;;;9.95;3.92;;;9.60;89.60;;;;;;5021465;27;82288;-70
2023/01/02 03:00:06;;;;;;;9.32;4.03;;;9.40;90.00;;;;;;5019368;27;82055;-70
2023/01/02 03:02:32;;;;;;;9.48;3.53;;;9.40;90.50;;;;;;5012243;28;82457;-70
2023/01/02 03:05:05;;;;;;;12.23;4.35;;;9.30;90.60;;;;;;5015183;28;82075;-71
2023/01/02 03:07:53;;;;;;;8.77;4.07;;;9.20;90.70;;;;;;5014954;28;83217;-71
2023/01/02 03:10:28;;;;;;;8.32;3.95;;;9.10;90.80;;;;;;5014516;28;81514;-71
2023/01/02 03:13:00;;;;;;;10.73;3.60;;;9.10;91.10;;;;;;5026722;28;82731;-71
2023/01/02 03:15:34;;;;;;;7.95;3.45;;;9.10;91.20;;;;;;5024340;28;82431;-70
2023/01/02 03:18:11;;;;;;;11.27;3.55;;;9.00;91.50;;;;;;5014695;28;83008;-71
2023/01/02 03:20:41;;;;;;;9.93;4.00;;;8.90;91.80;;;;;;5024736;28;82585;-71
2023/01/02 03:23:16;;;;;;;10.43;3.85;;;8.90;92.30;;;;;;5018605;28;81992;-71
2023/01/02 03:25:43;;;;;;;9.10;3.53;;;8.90;92.30;;;;;;5023652;28;82930;-71
2023/01/02 03:28:10;;;;;;;6.63;3.10;;;8.90;93.10;;;;;;5022584;28;82296;-72
2023/01/02 03:30:38;;;;;;;8.32;3.22;;;8.80;92.80;;;;;;5011798;28;82089;-71
2023/01/02 03:33:17;;;;;;;8.00;3.28;;;8.80;92.30;;;;;;5029601;28;82640;-72
2023/01/02 03:36:01;;;;;;;9.48;3.55;;;8.80;92.50;;;;;;5028755;28;82834;-72
2023/01/02 03:38:32;;;;;;;8.00;3.38;;;8.70;93.10;;;;;;5018469;28;82992;-72
2023/01/02 03:41:32;;;;;;;8.02;3.60;;;8.60;93.40;;;;;;5022730;28;82844;-72
2023/01/02 03:44:00;;;;;;;8.45;3.28;;;8.60;93.20;;;;;;5017679;28;83464;-72
2023/01/02 03:46:52;;;;;;;8.93;3.72;;;8.60;93.20;;;;;;5021652;28;83207;-72
2023/01/02 03:49:33;;;;;;;9.43;3.75;;;8.50;93.40;;;;;;5016395;28;82045;-72
2023/01/02 03:51:59;;;;;;;6.35;3.08;;;8.50;93.80;;;;;;5018963;28;82315;-71
2023/01/02 03:54:26;;;;;;;6.82;3.05;;;8.50;93.40;;;;;;5016823;28;83229;-71
2023/01/02 03:57:07;;;;;;;8.82;3.70;;;8.40;94.40;;;;;;5019122;27;82312;-71
2023/01/02 03:59:45;;;;;;;8.70;3.30;;;8.50;94.30;;;;;;5011570;28;82123;-71
2023/01/02 04:02:16;;;;;;;9.00;4.03;;;8.50;94.50;;;;;;5016062;28;81928;-71
2023/01/02 04:05:03;;;;;;;7.55;3.30;;;8.40;94.40;;;;;;5018181;28;82667;-71
2023/01/02 04:07:38;;;;;;;6.80;3.20;;;8.40;94.30;;;;;;5020984;28;83339;-72
2023/01/02 04:10:07;;;;;;;8.10;3.80;;;8.40;94.50;;;;;;5024307;28;82996;-72
2023/01/02 04:12:36;;;;;;;9.05;4.03;;;8.30;95.00;;;;;;5019239;27;82820;-72
2023/01/02 04:15:08;;;;;;;8.05;3.75;;;8.30;94.70;;;;;;5023325;28;83668;-72
2023/01/02 04:18:14;;;;;;;8.70;3.70;;;8.20;94.70;;;;;;5015459;28;84295;-71
2023/01/02 04:20:45;;;;;;;9.15;3.65;;;8.10;95.00;;;;;;5027029;28;82419;-71
2023/01/02 04:23:39;;;;;;;10.63;3.92;;;8.10;95.30;;;;;;5016246;28;83390;-71
2023/01/02 04:26:10;;;;;;;8.30;3.80;;;8.10;95.20;;;;;;5024140;28;83191;-70
2023/01/02 04:28:36;;;;;;;12.73;4.30;;;8.10;95.70;;;;;;5033098;28;82321;-72
2023/01/02 04:31:12;;;;;;;10.73;3.92;;;8.10;96.00;;;;;;5024381;27;82272;-71
2023/01/02 04:33:47;;;;;;;10.05;3.97;;;8.00;95.80;;;;;;5027749;28;83280;-70
2023/01/02 04:36:14;;;;;;;9.00;3.90;;;8.00;95.70;;;;;;5016251;28;83545;-70
2023/01/02 04:38:44;;;;;;;9.15;4.00;;;8.00;95.50;;;;;;5018120;27;83323;-71
2023/01/02 04:41:13;;;;;;;10.25;3.90;;;8.00;95.70;;;;;;5021968;28;84255;-70
2023/01/02 04:43:39;;;;;;;6.80;3.35;;;7.90;95.90;;;;;;5017437;28;81927;-71
2023/01/02 04:46:05;;;;;;;8.32;3.67;;;7.90;96.10;;;;;;5021020;28;82628;-71
2023/01/02 04:48:30;;;;;;;7.68;3.50;;;7.90;96.50;;;;;;5010709;28;82477;-71
2023/01/02 04:50:56;;;;;;;9.75;3.45;;;7.90;96.80;;;;;;5019151;28;84146;-69
2023/01/02 04:53:22;;;;;;;9.02;3.72;;;8.00;96.90;;;;;;5012173;28;81452;-71
2023/01/02 04:55:47;;;;;;;11.02;3.90;;;8.00;96.50;;;;;;5012971;28;83827;-71
2023/01/02 04:58:13;;;;;;;6.47;2.85;;;8.00;96.20;;;;;;5021106;28;82764;-70
2023/01/02 05:00:39;;;;;;;7.30;3.55;;;8.00;96.20;;;;;;5027755;28;83306;-71
2023/01/02 05:03:05;;;;;;;9.85;3.20;;;8.00;96.80;;;;;;5012351;28;82755;-70
2023/01/02 05:05:31;;;;;;;9.15;3.70;;;8.00;96.50;;;;;;5018828;28;83167;-71
2023/01/02 05:07:58;;;;;;;7.63;3.13;;;7.90;96.80;;;;;;5030007;28;82768;-71
2023/01/02 05:10:23;;;;;;;12.30;3.58;;;7.90;96.70;;;;;;5033818;28;82981;-71
2023/01/02 05:12:49;;;;;;;9.70;3.78;;;7.90;96.90;;;;;;5035442;28;82190;-71
2023/01/02 05:15:15;;;;;;;9.82;3.55;;;7.80;97.10;;;;;;5026528;27;84058;-70
2023/01/02 05:17:41;;;;;;;8.48;3.83;;;7.80;96.90;;;;;;5024849;28;82853;-70
2023/01/02 05:20:09;;;;;;;8.85;3.00;;;7.70;97.50;;;;;;5029758;28;84549;-70
2023/01/02 05:25:23;;;;;;;11.10;4.53;;;7.60;97.30;;;;;;5028474;28;83277;-70
2023/01/02 05:27:53;;;;;;;15.18;4.32;;;7.50;97.50;;;;;;5021606;28;84170;-70
2023/01/02 05:30:19;;;;;;;12.52;4.43;;;7.50;97.70;;;;;;5021152;27;82456;-70
2023/01/02 05:32:45;;;;;;;9.30;4.50;;;7.40;97.70;;;;;;5021621;28;83626;-70
2023/01/02 05:35:11;;;;;;;11.10;4.22;;;7.40;97.40;;;;;;5011197;28;83831;-70
2023/01/02 05:37:37;;;;;;;9.40;4.15;;;7.30;97.70;;;;;;5019952;28;82315;-70
2023/01/02 05:40:03;;;;;;;11.88;4.75;;;7.30;98.30;;;;;;5020120;28;82472;-70
2023/01/02 05:42:28;;;;;;;8.82;4.00;;;7.20;98.60;;;;;;5025521;28;82077;-70
2023/01/02 05:44:54;;;;;;;8.55;3.95;;;7.30;98.40;;;;;;5017706;28;82538;-70
2023/01/02 05:47:20;;;;;;;9.65;4.07;;;7.20;98.50;;;;;;5009364;28;82317;-70
2023/01/02 05:49:45;;;;;;;9.82;3.80;;;7.20;98.70;;;;;;5019792;28;83373;-71
2023/01/02 05:52:11;;;;;;;12.27;4.20;;;7.20;99.20;;;;;;5016511;28;82383;-71
2023/01/02 05:54:36;;;;;;;10.45;3.72;;;7.10;99.80;;;;;;5019073;28;82402;-71
2023/01/02 05:57:02;;;;;;;9.68;4.35;;;7.10;99.90;;;;;;5024872;28;82340;-70
2023/01/02 05:59:28;;;;;;;13.90;4.28;;;7.10;99.90;;;;;;5026496;27;82870;-70
2023/01/02 06:01:54;;;;;;;8.77;3.85;;;7.10;99.90;;;;;;5019405;28;82886;-71
2023/01/02 06:04:20;;;;;;;12.20;4.72;;;7.10;99.90;;;;;;5035106;28;82462;-70
2023/01/02 06:06:46;;;;;;;11.68;4.85;;;7.10;99.90;;;;;;5031910;28;82187;-70
2023/01/02 06:09:13;;;;;;;10.35;4.43;;;7.10;99.90;;;;;;5016220;28;82348;-71
2023/01/02 06:11:39;;;;;;;14.20;4.25;;;7.10;99.90;;;;;;5014680;28;82538;-71
2023/01/02 06:14:05;;;;;;;13.75;4.13;;;7.10;99.90;;;;;;5025070;28;83487;-71
2023/01/02 06:16:31;;;;;;;9.77;3.45;;;7.10;99.90;;;;;;5027623;28;84406;-71
2023/01/02 06:18:57;;;;;;;12.68;4.25;;;7.10;99.90;;;;;;5020482;28;82554;-72
2023/01/02 06:21:22;;;;;;;10.52;4.03;;;7.10;99.90;;;;;;5010872;28;81964;-71
2023/01/02 06:23:54;;;;;;;8.10;3.75;;;7.20;99.90;;;;;;5012472;28;83085;-72
2023/01/02 06:26:21;;;;;;;10.20;3.55;;;7.10;99.90;;;;;;5019482;28;82169;-72
2023/01/02 06:28:54;;;;;;;7.93;3.63;;;7.10;99.90;;;;;;5010596;28;82319;-72
2023/01/02 06:31:23;;;;;;;13.88;4.35;;;7.10;99.90;;;;;;5024166;28;81448;-71
2023/01/02 06:33:57;;;;;;;11.05;3.67;;;7.10;99.90;;;;;;5020718;28;83122;-70
2023/01/02 06:36:23;;;;;;;7.20;3.40;;;7.00;99.90;;;;;;5023562;28;82836;-70
2023/01/02 06:38:49;;;;;;;9.30;3.30;;;7.00;99.90;;;;;;5018484;28;82992;-70
2023/01/02 06:41:15;;;;;;;7.78;3.53;;;7.00;99.90;;;;;;5028164;28;82149;-72
2023/01/02 06:43:43;;;;;;;7.45;3.42;;;6.90;99.90;;;;;;5027669;28;82299;-70
2023/01/02 06:46:10;;;;;;;8.82;3.33;;;6.80;99.90;;;;;;5014541;28;82004;-70
2023/01/02 06:48:36;;;;;;;8.68;3.58;;;6.80;99.90;;;;;;5014402;28;82130;-71
2023/01/02 06:51:06;;;;;;;8.25;3.60;;;6.80;99.90;;;;;;5011888;28;82002;-71
2023/01/02 06:53:37;;;;;;;6.97;3.10;;;6.80;99.90;;;;;;5024953;28;82504;-71
2023/01/02 06:56:04;;;;;;;8.60;3.22;;;6.80;99.90;;;;;;5024145;28;85294;-71
2023/01/02 06:58:31;;;;;;;7.18;3.17;;;6.70;99.90;;;;;;5024130;28;82854;-71
2023/01/02 07:01:21;;;;;;;8.68;3.70;;;6.70;99.90;;;;;;5015535;27;82035;-71
2023/01/02 07:03:46;;;;;;;7.38;3.17;;;6.70;99.90;;;;;;5013569;28;84118;-70
2023/01/02 07:06:18;;;;;;;5.65;2.50;;;6.70;99.90;;;;;;5024395;28;83741;-70
2023/01/02 07:08:44;;;;;;;7.00;3.10;;;6.80;99.90;;;;;;5019366;28;82350;-72
2023/01/02 07:11:11;;;;;;;5.72;2.25;;;6.80;99.90;;;;;;5022042;28;82294;-71
2023/01/02 07:13:38;;;;;;;5.72;2.28;;;6.80;99.90;;;;;;5020275;28;82631;-72
2023/01/02 07:16:05;;;;;;;5.38;2.25;;;6.80;99.90;;;;;;5009247;28;83930;-71
2023/01/02 07:18:32;;;;;;;7.05;2.50;;;6.80;99.90;;;;;;5020759;28;82063;-72
2023/01/02 07:20:58;;;;;;;6.40;1.75;;;6.80;99.90;;;;;;5013733;28;82326;-72
2023/01/02 07:23:23;;;;;;;6.28;2.22;;;6.80;99.90;;;;;;5018409;28;85028;-73
2023/01/02 07:25:58;;;;;;;7.20;2.70;;;6.90;99.90;;;;;;5017114;28;86185;-72
2023/01/02 07:28:24;;;;;;;9.07;3.08;;;7.00;99.90;;;;;;5018648;28;83899;-73
2023/01/02 07:30:49;;;;;;;6.22;2.67;;;7.00;99.90;;;;;;5009592;28;84499;-72
2023/01/02 07:33:16;;;;;;;8.70;2.65;;;7.10;99.90;;;;;;5016168;28;82761;-73
2023/01/02 07:35:43;;;;;;;7.40;3.20;;;7.20;99.90;;;;;;5021340;28;82733;-73
2023/01/02 07:38:09;;;;;;;11.00;5.15;;;7.20;99.90;;;;;;5014936;28;82052;-73
2023/01/02 07:40:34;;;;;;;13.90;5.82;;;7.20;99.90;;;;;;5014743;28;82367;-73
2023/01/02 07:43:00;;;;;;;10.35;4.93;;;7.30;99.90;;;;;;5033014;28;82949;-73
2023/01/02 07:45:26;;;;;;;14.93;5.25;;;7.40;99.80;;;;;;5039669;28;82895;-73
2023/01/02 07:47:51;;;;;;;11.90;3.72;;;7.50;99.70;;;;;;5020224;28;82290;-71
2023/01/02 07:50:17;;;;;;;7.50;3.08;;;8.40;98.50;;;;;;5018140;28;82462;-71
2023/01/02 07:52:43;;;;;;;6.13;2.40;;;9.70;94.60;;;;;;5012125;28;84347;-71
2023/01/02 07:55:09;;;;;;;7.00;2.50;;;10.60;91.50;;;;;;5012126;28;83858;-71
2023/01/02 07:57:35;;;;;;;4.47;1.52;;;10.80;89.80;;;;;;5017766;28;82090;-71
2023/01/02 08:00:02;;;;;;;7.68;2.15;;;10.70;89.70;;;;;;5013620;28;83351;-71
2023/01/02 08:02:28;;;;;;;5.88;2.22;;;10.60;88.50;;;;;;5019322;28;83467;-72
2023/01/02 08:04:53;;;;;;;6.45;1.90;;;10.40;88.00;;;;;;5020611;28;82615;-71
2023/01/02 08:07:20;;;;;;;4.57;1.40;;;10.20;90.00;;;;;;5018043;28;82554;-71
2023/01/02 08:09:46;;;;;;;4.13;1.95;;;10.20;90.00;;;;;;5026904;28;81359;-71
2023/01/02 08:12:11;;;;;;;5.28;1.38;;;10.00;90.20;;;;;;5008006;28;82693;-71
2023/01/02 08:14:37;;;;;;;4.97;1.52;;;9.90;90.50;;;;;;5014837;28;84446;-71
2023/01/02 08:17:03;;;;;;;5.85;1.75;;;10.00;91.20;;;;;;5017524;28;83915;-71
2023/01/02 08:19:28;;;;;;;4.43;1.50;;;10.10;91.40;;;;;;5018138;27;84503;-71
2023/01/02 08:21:54;;;;;;;4.72;1.73;;;10.20;90.50;;;;;;5020479;28;83614;-71
2023/01/02 08:24:20;;;;;;;5.53;2.30;;;10.40;90.30;;;;;;5025779;28;82074;-72
2023/01/02 08:26:45;;;;;;;7.38;1.95;;;10.70;90.00;;;;;;5023120;28;82392;-72
2023/01/02 08:29:11;;;;;;;5.43;1.83;;;11.00;89.50;;;;;;5028196;27;82064;-71
2023/01/02 08:31:37;;;;;;;5.43;1.85;;;11.30;87.60;;;;;;5025090;28;82406;-72
2023/01/02 08:34:02;;;;;;;5.32;2.25;;;11.70;86.80;;;;;;5035710;28;81548;-72
2023/01/02 08:36:28;;;;;;;6.05;1.92;;;12.20;83.20;;;;;;5018626;28;82282;-71
2023/01/02 08:38:54;;;;;;;5.90;2.65;;;12.60;83.90;;;;;;5011510;28;82376;-71
2023/01/02 08:41:36;;;;;;;8.77;2.10;;;13.00;80.90;;;;;;5010629;28;83505;-71
2023/01/02 08:44:03;;;;;;;8.23;2.60;;;13.30;80.10;;;;;;5014414;27;84057;-71
2023/01/02 08:46:31;;;;;;;8.55;2.60;;;13.30;79.50;;;;;;5019695;28;82516;-71
2023/01/02 08:48:57;;;;;;;6.38;2.20;;;13.10;79.80;;;;;;5027326;28;82339;-72
2023/01/02 08:51:23;;;;;;;6.60;2.55;;;12.80;80.50;;;;;;5021667;27;83353;-72
2023/01/02 08:53:49;;;;;;;6.15;2.58;;;12.50;80.80;;;;;;5009908;28;84276;-72
2023/01/02 08:56:22;;;;;;;5.57;2.47;;;12.20;82.60;;;;;;5017615;28;82003;-71
2023/01/02 08:58:53;;;;;;;8.15;2.30;;;12.10;82.60;;;;;;5005881;28;81487;-71
2023/01/02 09:01:18;;;;;;;6.75;2.38;;;11.70;83.50;;;;;;5012499;28;84567;-71
2023/01/02 09:03:44;;;;;;;5.00;2.30;;;11.60;86.80;;;;;;5005363;28;82761;-71
2023/01/02 09:06:10;;;;;;;5.88;2.10;;;11.50;87.20;;;;;;5016969;28;82980;-71
2023/01/02 09:08:35;;;;;;;6.50;2.45;;;11.40;85.60;;;;;;5008419;28;83054;-71
2023/01/02 09:11:17;;;;;;;5.90;2.17;;;11.50;85.80;;;;;;5007533;28;83870;-70
2023/01/02 09:13:43;;;;;;;5.93;2.33;;;11.30;88.80;;;;;;5003932;28;82930;-70
2023/01/02 09:16:10;;;;;;;7.63;2.00;;;11.20;88.70;;;;;;5019306;28;83391;-71
2023/01/02 09:18:37;;;;;;;7.53;2.90;;;11.10;87.90;;;;;;5023956;28;82028;-71
2023/01/02 09:21:03;;;;;;;6.72;2.92;;;11.00;88.10;;;;;;5039688;28;83028;-70
2023/01/02 09:23:30;;;;;;;7.95;2.53;;;11.00;89.20;;;;;;5031609;28;82246;-70
2023/01/02 09:26:00;;;;;;;5.53;2.72;;;10.90;90.20;;;;;;5021730;27;82472;-70
2023/01/02 09:28:27;;;;;;;;;;;11.00;89.70;;;;;;5018197;28;81987;-70
2023/01/02 09:30:53;;;;;;;6.20;2.53;;;11.00;90.40;;;;;;5014139;28;84330;-70
2023/01/02 09:33:18;;;;;;;5.82;2.33;;;11.10;88.90;;;;;;5020147;28;83293;-70
2023/01/02 09:35:44;;;;;;;9.63;2.67;;;11.10;90.20;;;;;;5011263;28;82158;-70
2023/01/02 09:38:10;;;;;;;5.22;2.38;;;11.20;89.50;;;;;;5028060;28;83629;-70
2023/01/02 09:40:50;;;;;;;4.97;2.30;;;11.20;88.80;;;;;;5023015;28;82569;-70
2023/01/02 09:43:24;;;;;;;6.45;2.50;;;11.30;88.30;;;;;;5021775;28;82042;-69
2023/01/02 09:45:52;;;;;;;5.60;2.17;;;11.40;87.90;;;;;;5013470;28;82236;-70
2023/01/02 09:48:20;;;;;;;5.40;2.15;;;11.50;88.20;;;;;;5017921;28;81824;-70
2023/01/02 09:50:48;;;;;;;6.63;2.75;;;11.50;87.70;;;;;;5023060;28;82640;-70
2023/01/02 09:53:15;;;;;;;5.57;1.83;;;11.50;88.50;;;;;;5022692;27;82258;-70
2023/01/02 09:56:01;;;;;;;12.18;6.55;;;11.50;88.90;;;;;;5021694;28;84707;-70
2023/01/02 09:58:52;;;;;;;14.35;6.72;;;11.60;88.80;;;;;;5023148;28;83828;-70
2023/01/02 10:01:41;;;;;;;15.40;6.82;;;11.70;88.40;;;;;;5019230;28;82621;-70
2023/01/02 10:04:17;;;;;;;13.43;6.88;;;11.70;88.90;;;;;;5022136;28;82487;-70
2023/01/02 10:06:57;;;;;;;6.30;3.00;;;11.60;89.50;;;;;;5014618;28;82471;-69
2023/01/02 10:09:27;;;;;;;14.50;6.53;;;11.60;88.70;;;;;;5018089;28;82010;-69
2023/01/02 10:12:08;;;;;;;9.05;4.18;;;11.60;89.40;;;;;;5030649;28;82651;-69
2023/01/02 10:14:58;;;;;;;5.65;2.50;;;11.70;89.90;;;;;;5022790;28;86554;-70
2023/01/02 10:17:27;;;;;;;15.23;5.03;;;11.80;88.40;;;;;;5010619;28;82742;-69
2023/01/02 10:20:14;;;;;;;8.00;2.80;;;11.90;87.90;;;;;;5018311;28;82527;-69
2023/01/02 10:22:47;;;;;;;5.72;2.63;;;11.90;87.40;;;;;;5019711;28;83321;-69
2023/01/02 10:25:23;;;;;;;15.55;7.18;;;11.90;87.70;;;;;;5039787;27;84128;-69
2023/01/02 10:28:13;;;;;;;5.53;2.70;;;11.80;88.30;;;;;;5013026;28;82291;-69
2023/01/02 10:31:19;;;;;;;9.90;3.33;;;11.90;87.60;;;;;;5016750;28;82080;-70
2023/01/02 10:33:56;;;;;;;5.38;2.35;;;11.80;88.10;;;;;;5008355;28;83203;-70
2023/01/02 10:36:30;;;;;;;5.38;2.28;;;11.90;88.30;;;;;;5026633;28;82267;-70
2023/01/02 10:39:02;;;;;;;9.30;3.10;;;12.00;87.60;;;;;;5021484;28;81957;-70
2023/01/02 10:41:29;;;;;;;9.32;3.00;;;12.10;86.40;;;;;;5034666;28;82720;-70
2023/01/02 10:44:03;;;;;;;7.80;2.65;;;12.20;86.60;;;;;;5018719;27;83308;-70
2023/01/02 10:46:35;;;;;;;5.80;2.42;;;12.20;87.10;;;;;;5016598;28;82439;-70
2023/01/02 10:49:07;;;;;;;9.07;2.22;;;12.40;86.30;;;;;;5019522;28;83517;-70
2023/01/02 10:51:35;;;;;;;8.48;2.65;;;12.50;86.50;;;;;;5013139;28;82069;-70
2023/01/02 10:54:06;;;;;;;6.22;2.38;;;12.50;85.30;;;;;;5015784;28;82493;-70
2023/01/02 10:56:34;;;;;;;5.82;2.30;;;12.30;85.20;;;;;;5010423;28;83802;-70
2023/01/02 10:59:01;;;;;;;5.13;2.28;;;12.30;86.00;;;;;;5017579;28;81989;-70
2023/01/02 11:01:27;;;;;;;10.73;2.72;;;12.30;86.30;;;;;;5014404;27;82730;-70
2023/01/02 11:03:58;;;;;;;13.43;5.55;;;12.40;86.20;;;;;;5005032;28;82644;-70
2023/01/02 11:06:31;;;;;;;7.60;2.85;;;12.40;85.80;;;;;;5019193;28;82394;-70
2023/01/02 11:09:02;;;;;;;7.78;3.50;;;12.50;87.20;;;;;;5008395;28;84234;-70
2023/01/02 11:11:30;;;;;;;14.02;6.22;;;12.70;85.90;;;;;;5014179;28;83602;-70
2023/01/02 11:14:05;;;;;;;10.35;4.53;;;12.80;85.20;;;;;;5016096;28;84639;-70
2023/01/02 11:16:37;;;;;;;9.52;4.18;;;12.70;85.60;;;;;;5015907;28;85806;-70
2023/01/02 11:19:06;;;;;;;9.85;2.70;;;12.70;85.10;;;;;;5006399;28;86085;-70
2023/01/02 11:21:34;;;;;;;13.07;2.90;;;12.60;85.00;;;;;;5010410;28;81961;-70
2023/01/02 11:24:05;;;;;;;5.45;2.58;;;12.60;86.00;;;;;;5015774;28;82780;-70
2023/01/02 11:26:32;;;;;;;7.68;2.45;;;12.60;86.00;;;;;;5006031;28;83011;-70
2023/01/02 11:29:08;;;;;;;7.40;3.13;;;12.60;87.40;;;;;;5009548;28;82468;-70
2023/01/02 11:31:35;;;;;;;8.30;2.97;;;12.60;86.20;;;;;;5021462;28;81282;-70
2023/01/02 11:34:09;;;;;;;6.70;2.55;;;12.60;85.40;;;;;;5012296;28;82598;-70
2023/01/02 11:36:35;;;;;;;6.55;2.35;;;12.70;85.60;;;;;;5011121;28;82932;-70
2023/01/02 11:39:22;;;;;;;5.70;2.17;;;12.60;85.10;;;;;;5015949;28;83019;-70
2023/01/02 11:44:54;;;;;;;4.97;2.03;;;12.60;83.60;;;;;;5012529;28;83053;-70
2023/01/02 11:47:43;;;;;;;5.53;2.20;;;12.60;84.00;;;;;;5016475;28;82732;-70
2023/01/02 11:50:23;;;;;;;7.75;3.53;;;12.50;83.30;;;;;;5011062;28;82371;-70
2023/01/02 11:53:10;;;;;;;6.53;2.80;;;12.40;84.50;;;;;;5017291;28;82155;-70
2023/01/02 11:55:39;;;;;;;5.70;2.42;;;12.40;84.80;;;;;;5009542;28;82644;-70
2023/01/02 11:58:26;;;;;;;6.25;2.35;;;12.50;84.80;;;;;;5020372;28;81786;-70
2023/01/02 12:00:55;;;;;;;6.95;2.70;;;12.50;84.90;;;;;;5019913;28;82323;-70
2023/01/02 12:03:24;;;;;;;6.20;2.28;;;12.50;84.70;;;;;;5018273;28;82267;-70
2023/01/02 12:06:18;;;;;;;4.70;2.00;;;12.50;84.70;;;;;;5007860;28;84195;-70
2023/01/02 12:08:57;;;;;;;5.32;1.90;;;12.50;85.00;;;;;;5020349;28;83826;-70
2023/01/02 12:11:47;;;;;;;8.10;2.40;;;12.40;85.00;;;;;;5037634;28;81989;-70
2023/01/02 12:14:16;;;;;;;6.15;2.22;;;12.40;85.90;;;;;;5019944;28;82576;-70
2023/01/02 12:17:05;;;;;;;6.95;2.42;;;12.40;85.00;;;;;;5038930;28;81973;-70
2023/01/02 12:19:59;;;;;;;5.47;2.30;;;12.40;85.70;;;;;;5020359;27;84017;-70
2023/01/02 12:22:40;;;;;;;7.50;1.77;;;12.50;85.80;;;;;;5005228;28;84619;-70
2023/01/02 12:25:29;;;;;;;6.25;2.30;;;12.50;86.00;;;;;;5002636;28;83914;-70
2023/01/02 12:28:00;;;;;;;7.45;2.10;;;12.50;83.60;;;;;;5009699;28;84717;-70
2023/01/02 12:30:27;;;;;;;4.45;2.10;;;12.60;84.10;;;;;;5023760;28;82197;-70
2023/01/02 12:33:11;;;;;;;5.88;1.63;;;12.70;83.00;;;;;;5036262;28;83123;-70
2023/01/02 12:36:01;;;;;;;7.32;3.03;;;12.80;82.30;;;;;;5030299;28;82303;-70
2023/01/02 12:38:44;;;;;;;7.68;2.38;;;12.80;81.80;;;;;;5014434;28;82651;-70
2023/01/02 12:41:37;;;;;;;6.43;2.25;;;12.90;83.80;;;;;;5026782;28;82739;-70
2023/01/02 12:44:02;;;;;;;5.00;2.38;;;13.00;82.70;;;;;;5019861;28;82397;-70
2023/01/02 12:47:16;;;;;;;7.35;2.55;;;13.10;82.40;;;;;;5024059;28;82250;-70
2023/01/02 12:50:16;;;;;;;6.22;2.85;;;13.10;83.00;;;;;;5009887;28;83089;-70
2023/01/02 12:52:53;;;;;;;5.90;2.20;;;13.30;82.90;;;;;;5023417;28;84955;-70
2023/01/02 12:55:26;;;;;;;4.47;1.67;;;13.40;82.30;;;;;;5033326;27;81985;-70
2023/01/02 12:58:13;;;;;;;8.07;2.20;;;13.50;80.80;;;;;;5026888;27;82067;-70
2023/01/02 13:00:51;;;;;;;4.65;2.20;;;13.60;80.30;;;;;;5013152;28;83549;-71
2023/01/02 13:03:39;;;;;;;7.60;2.50;;;13.60;80.30;;;;;;5023444;28;83765;-70
2023/01/02 13:06:27;;;;;;;8.57;3.38;;;13.60;78.70;;;;;;5024283;28;82409;-70
2023/01/02 13:09:01;;;;;;;10.63;3.28;;;13.70;78.30;;;;;;5010184;28;82191;-70
2023/01/02 13:11:42;;;;;;;8.55;3.70;;;13.80;77.50;;;;;;5025547;28;82224;-70
2023/01/02 13:14:17;;;;;;;13.00;4.50;;;13.80;77.00;;;;;;5021936;28;82474;-70
2023/01/02 13:16:54;;;;;;;9.38;3.40;;;13.90;77.30;;;;;;5028024;28;82003;-70
2023/01/02 13:19:25;;;;;;;8.27;3.72;;;13.90;75.90;;;;;;5037441;28;81571;-70